createdAt,value
2017-10-19T00:00:24.114Z,91.02
2017-10-19T00:01:33.396Z,91.27
2017-10-19T00:02:44.423Z,91.41
2017-10-19T00:03:54.776Z,91.27
2017-10-19T00:05:03.725Z,91.5
2017-10-19T00:06:12.618Z,90.98
2017-10-19T00:07:21.578Z,90.88
2017-10-19T00:08:31.907Z,91.6
2017-10-19T00:09:42.234Z,91.69
2017-10-19T00:10:51.169Z,91.5
2017-10-19T00:12:00.102Z,91.46
2017-10-19T00:13:10.408Z,91.5
2017-10-19T00:14:20.727Z,91.46
2017-10-19T00:15:29.651Z,91.5
2017-10-19T00:16:39.284Z,91.78
2017-10-19T00:17:48.197Z,91.46
2017-10-19T00:18:58.540Z,91.55
2017-10-19T00:20:08.762Z,91.55
2017-10-19T00:21:49.747Z,91.55
2017-10-19T00:22:59.961Z,91.69
2017-10-19T00:24:10.953Z,92.03
2017-10-19T00:25:20.315Z,92.12
2017-10-19T00:26:29.690Z,91.93
2017-10-19T00:27:39.305Z,92.5
2017-10-19T00:28:50.274Z,92.32
2017-10-19T00:29:59.307Z,92.41
2017-10-19T00:31:08.697Z,92.5
2017-10-19T00:32:18.849Z,92.41
2017-10-19T00:33:29.257Z,92.79
2017-10-19T00:34:39.888Z,92.88
2017-10-19T00:35:49.609Z,92.55
2017-10-19T00:36:58.519Z,92.79
2017-10-19T00:38:10.181Z,92.55
2017-10-19T00:39:38.634Z,92.93
2017-10-19T00:40:48.981Z,92.55
2017-10-19T00:41:59.413Z,92.74
2017-10-19T00:43:10.108Z,92.55
2017-10-19T00:44:20.411Z,92.83
2017-10-19T00:45:29.438Z,92.74
2017-10-19T00:46:38.813Z,92.74
2017-10-19T00:47:49.805Z,93.02
2017-10-19T00:48:59.518Z,92.83
2017-10-19T00:50:09.270Z,92.74
2017-10-19T00:51:19.312Z,92.93
2017-10-19T00:52:28.636Z,92.83
2017-10-19T00:53:37.770Z,92.65
2017-10-19T00:54:47.041Z,92.65
2017-10-19T00:55:56.422Z,92.83
2017-10-19T00:57:07.098Z,92.55
2017-10-19T00:58:16.825Z,92.55
2017-10-19T00:59:27.188Z,92.93
2017-10-19T01:00:37.024Z,92.55
2017-10-19T01:01:46.111Z,92.55
2017-10-19T01:02:55.057Z,92.83
2017-10-19T01:04:06.098Z,92.93
2017-10-19T01:05:15.018Z,92.74
2017-10-19T01:06:25.690Z,92.65
2017-10-19T01:07:36.362Z,93.02
2017-10-19T01:08:47.062Z,92.88
2017-10-19T01:09:56.688Z,92.88
2017-10-19T01:11:07.038Z,92.83
2017-10-19T01:12:16.082Z,93.26
2017-10-19T01:13:24.995Z,93.07
2017-10-19T01:14:35.352Z,92.97
2017-10-19T01:15:45.644Z,93.26
2017-10-19T01:16:55.988Z,93.74
2017-10-19T01:18:05.217Z,93.65
2017-10-19T01:19:16.219Z,93.55
2017-10-19T01:20:25.586Z,93.46
2017-10-19T01:21:35.900Z,93.74
2017-10-19T01:22:44.821Z,93.84
2017-10-19T01:23:55.085Z,93.84
2017-10-19T01:25:04.402Z,93.55
2017-10-19T01:26:14.628Z,93.84
2017-10-19T01:27:23.525Z,93.84
2017-10-19T01:28:34.022Z,93.84
2017-10-19T01:29:46.957Z,93.84
2017-10-19T01:30:55.878Z,93.55
2017-10-19T01:32:05.437Z,93.65
2017-10-19T01:33:14.377Z,93.65
2017-10-19T01:34:23.317Z,94.12
2017-10-19T01:35:33.646Z,93.5
2017-10-19T01:36:43.028Z,93.79
2017-10-19T01:37:53.354Z,93.79
2017-10-19T01:39:02.435Z,93.74
2017-10-19T01:40:12.752Z,94.03
2017-10-19T01:41:21.689Z,94.12
2017-10-19T01:42:32.352Z,94.22
2017-10-19T01:43:42.668Z,94.03
2017-10-19T01:44:53.965Z,93.93
2017-10-19T01:46:04.614Z,94.03
2017-10-19T01:47:14.945Z,94.31
2017-10-19T01:48:25.292Z,94.22
2017-10-19T01:49:36.098Z,94.6
2017-10-19T01:51:17.152Z,94.51
2017-10-19T01:52:26.592Z,94.31
2017-10-19T01:53:37.131Z,94.6
2017-10-19T01:54:46.066Z,94.89
2017-10-19T01:55:56.725Z,94.79
2017-10-19T01:57:07.042Z,94.98
2017-10-19T01:58:16.649Z,95.17
2017-10-19T01:59:25.570Z,95.56
2017-10-19T02:00:35.296Z,95.27
2017-10-19T02:01:44.551Z,95.27
2017-10-19T02:02:53.472Z,95.84
2017-10-19T02:04:03.814Z,95.65
2017-10-19T02:05:13.068Z,95.46
2017-10-19T02:06:23.377Z,95.75
2017-10-19T02:07:33.726Z,95.46
2017-10-19T02:08:45.445Z,95.79
2017-10-19T02:09:56.096Z,96.22
2017-10-19T02:11:05.065Z,95.94
2017-10-19T02:12:14.026Z,96.22
2017-10-19T02:13:25.636Z,96.13
2017-10-19T02:14:36.700Z,96.13
2017-10-19T02:15:47.029Z,96.22
2017-10-19T02:16:56.255Z,96.51
2017-10-19T02:18:05.188Z,96.51
2017-10-19T02:19:14.529Z,96.7
2017-10-19T02:20:23.421Z,96.51
2017-10-19T02:21:33.770Z,96.51
2017-10-19T02:22:44.140Z,96.32
2017-10-19T02:23:54.773Z,96.89
2017-10-19T02:25:03.687Z,96.89
2017-10-19T02:26:13.984Z,96.8
2017-10-19T02:27:23.713Z,96.8
2017-10-19T02:28:32.618Z,97.08
2017-10-19T02:29:42.312Z,96.42
2017-10-19T02:30:51.668Z,97.27
2017-10-19T02:32:00.896Z,96.61
2017-10-19T02:33:09.884Z,97.47
2017-10-19T02:34:21.502Z,96.7
2017-10-19T02:35:30.862Z,97.08
2017-10-19T02:36:41.271Z,96.98
2017-10-19T02:37:51.597Z,97.37
2017-10-19T02:39:02.263Z,97.66
2017-10-19T02:40:11.172Z,97.18
2017-10-19T02:41:20.432Z,97.08
2017-10-19T02:42:29.365Z,97.18
2017-10-19T02:43:38.614Z,97.03
2017-10-19T02:44:47.873Z,96.94
2017-10-19T02:45:57.166Z,97.27
2017-10-19T02:47:06.082Z,97.27
2017-10-19T02:48:14.983Z,96.94
2017-10-19T02:49:23.929Z,97.08
2017-10-19T02:50:33.295Z,97.52
2017-10-19T02:51:42.214Z,96.7
2017-10-19T02:52:52.406Z,97.37
2017-10-19T02:54:02.714Z,97.08
2017-10-19T02:55:13.373Z,96.7
2017-10-19T02:56:54.436Z,97.27
2017-10-19T02:58:03.681Z,97.66
2017-10-19T02:59:14.331Z,97.47
2017-10-19T03:00:23.606Z,97.47
2017-10-19T03:01:33.927Z,97.37
2017-10-19T03:02:42.854Z,97.56
2017-10-19T03:03:53.170Z,97.66
2017-10-19T03:05:02.847Z,97.37
2017-10-19T03:06:13.519Z,97.8
2017-10-19T03:07:24.171Z,97.75
2017-10-19T03:08:34.828Z,97.75
2017-10-19T03:09:45.363Z,97.66
2017-10-19T03:10:54.714Z,97.75
2017-10-19T03:12:03.980Z,97.66
2017-10-19T03:13:14.625Z,97.08
2017-10-19T03:14:26.241Z,97.37
2017-10-19T03:15:36.556Z,97.18
2017-10-19T03:16:48.519Z,97.66
2017-10-19T03:17:57.887Z,97.18
2017-10-19T03:19:07.138Z,97.47
2017-10-19T03:20:17.481Z,97.56
2017-10-19T03:21:28.144Z,97.56
2017-10-19T03:22:37.117Z,97.47
2017-10-19T03:23:50.401Z,97.56
2017-10-19T03:24:59.301Z,97.37
2017-10-19T03:26:09.650Z,97.56
2017-10-19T03:27:19.982Z,97.56
2017-10-19T03:28:28.893Z,97.56
2017-10-19T03:29:37.807Z,97.66
2017-10-19T03:30:47.151Z,97.27
2017-10-19T03:31:57.444Z,97.18
2017-10-19T03:33:08.326Z,96.7
2017-10-19T03:34:19.963Z,97.75
2017-10-19T03:35:30.601Z,97.66
2017-10-19T03:36:41.192Z,97.75
2017-10-19T03:37:51.511Z,96.7
2017-10-19T03:39:02.143Z,97.18
2017-10-19T03:40:12.489Z,97.08
2017-10-19T03:41:21.744Z,96.98
2017-10-19T03:42:32.427Z,96.66
2017-10-19T03:43:41.362Z,96.75
2017-10-19T03:44:51.582Z,96.66
2017-10-19T03:46:01.803Z,96.56
2017-10-19T03:47:10.733Z,96.66
2017-10-19T03:48:21.064Z,96.66
2017-10-19T03:49:33.012Z,96.66
2017-10-19T03:50:43.322Z,97.13
2017-10-19T03:51:54.934Z,96.66
2017-10-19T03:53:04.192Z,97.51
2017-10-19T03:54:14.537Z,96.94
2017-10-19T03:55:25.175Z,97.71
2017-10-19T03:56:35.383Z,97.61
2017-10-19T03:57:44.385Z,97.42
2017-10-19T03:58:54.721Z,97.8
2017-10-19T04:00:04.079Z,97.71
2017-10-19T04:01:14.655Z,97.61
2017-10-19T04:02:24.025Z,97.8
2017-10-19T04:03:35.020Z,97.42
2017-10-19T04:04:46.970Z,97.32
2017-10-19T04:05:55.886Z,98.37
2017-10-19T04:07:05.530Z,98.18
2017-10-19T04:08:14.783Z,98.18
2017-10-19T04:09:24.035Z,97.99
2017-10-19T04:10:32.958Z,98.08
2017-10-19T04:11:41.878Z,97.89
2017-10-19T04:12:52.232Z,98.13
2017-10-19T04:14:01.611Z,98.03
2017-10-19T04:15:10.524Z,97.85
2017-10-19T04:16:19.478Z,97.94
2017-10-19T04:17:28.493Z,98.13
2017-10-19T04:18:37.763Z,98.03
2017-10-19T04:19:48.784Z,98.32
2017-10-19T04:20:59.337Z,98.42
2017-10-19T04:22:10.947Z,98.42
2017-10-19T04:23:19.858Z,98.13
2017-10-19T04:24:30.583Z,98.03
2017-10-19T04:25:39.504Z,98.03
2017-10-19T04:26:48.554Z,98.03
2017-10-19T04:27:58.130Z,97.94
2017-10-19T04:29:07.903Z,97.85
2017-10-19T04:30:17.162Z,98.42
2017-10-19T04:31:26.200Z,98.03
2017-10-19T04:32:35.121Z,98.13
2017-10-19T04:33:44.033Z,97.94
2017-10-19T04:34:54.696Z,98.32
2017-10-19T04:36:06.350Z,98.32
2017-10-19T04:37:17.990Z,98.32
2017-10-19T04:38:28.715Z,97.94
2017-10-19T04:39:39.694Z,98.32
2017-10-19T04:40:49.082Z,97.94
2017-10-19T04:41:58.019Z,98.42
2017-10-19T04:43:06.983Z,98.23
2017-10-19T04:44:15.987Z,97.56
2017-10-19T04:45:24.928Z,97.56
2017-10-19T04:46:33.844Z,97.56
2017-10-19T04:47:42.755Z,97.42
2017-10-19T04:48:52.157Z,97.51
2017-10-19T04:50:03.126Z,97.61
2017-10-19T04:51:13.522Z,97.42
2017-10-19T04:52:25.601Z,98.27
2017-10-19T04:53:36.282Z,98.18
2017-10-19T04:54:46.926Z,98.08
2017-10-19T04:55:55.825Z,97.89
2017-10-19T04:57:06.470Z,98.08
2017-10-19T04:58:17.141Z,98.18
2017-10-19T04:59:27.812Z,98.27
2017-10-19T05:00:38.515Z,97.61
2017-10-19T05:01:51.462Z,97.61
2017-10-19T05:03:01.288Z,98.27
2017-10-19T05:04:11.622Z,98.18
2017-10-19T05:05:20.881Z,97.99
2017-10-19T05:06:30.140Z,98.18
2017-10-19T05:07:39.381Z,98.27
2017-10-19T05:09:22.228Z,97.99
2017-10-19T05:10:32.444Z,98.08
2017-10-19T05:11:41.727Z,98.18
2017-10-19T05:12:50.662Z,98.27
2017-10-19T05:13:59.918Z,98.75
2017-10-19T05:15:11.564Z,98.27
2017-10-19T05:16:22.217Z,98.75
2017-10-19T05:17:32.860Z,98.75
2017-10-19T05:18:43.193Z,98.85
2017-10-19T05:19:52.125Z,98.85
2017-10-19T05:21:01.710Z,98.66
2017-10-19T05:22:10.624Z,98.75
2017-10-19T05:23:19.561Z,99.04
2017-10-19T05:24:29.876Z,98.37
2017-10-19T05:25:39.334Z,98.85
2017-10-19T05:26:48.281Z,98.94
2017-10-19T05:27:57.520Z,99.23
2017-10-19T05:29:06.438Z,98.94
2017-10-19T05:30:15.633Z,98.47
2017-10-19T05:31:24.579Z,99.04
2017-10-19T05:32:34.909Z,98.94
2017-10-19T05:33:43.820Z,99.52
2017-10-19T05:34:55.792Z,99.32
2017-10-19T05:36:06.434Z,99.32
2017-10-19T05:37:16.739Z,99.52
2017-10-19T05:38:25.645Z,98.66
2017-10-19T05:39:36.343Z,98.94
2017-10-19T05:40:45.594Z,98.75
2017-10-19T05:41:55.953Z,99.04
2017-10-19T05:43:05.226Z,98.75
2017-10-19T05:44:14.617Z,98.56
2017-10-19T05:45:23.906Z,99.42
2017-10-19T05:46:33.525Z,99.42
2017-10-19T05:47:42.782Z,99.61
2017-10-19T05:48:52.130Z,99.42
2017-10-19T05:50:02.531Z,99.42
2017-10-19T05:51:13.193Z,99.42
2017-10-19T05:52:23.431Z,99.42
2017-10-19T05:53:34.472Z,99.52
2017-10-19T05:54:44.180Z,99.32
2017-10-19T05:55:53.264Z,99.42
2017-10-19T05:57:02.246Z,98.94
2017-10-19T05:58:12.485Z,99.13
2017-10-19T05:59:24.376Z,99.32
2017-10-19T06:00:34.742Z,99.32
2017-10-19T06:01:43.668Z,99.23
2017-10-19T06:02:52.590Z,99.52
2017-10-19T06:04:01.847Z,99.61
2017-10-19T06:05:12.214Z,99.23
2017-10-19T06:06:22.640Z,99.42
2017-10-19T06:07:31.578Z,99.13
2017-10-19T06:08:43.538Z,99.23
2017-10-19T06:09:54.289Z,99.42
2017-10-19T06:11:03.208Z,99.57
2017-10-19T06:12:13.468Z,99.52
2017-10-19T06:13:22.412Z,99.28
2017-10-19T06:14:31.656Z,99.47
2017-10-19T06:15:42.256Z,99.37
2017-10-19T06:16:52.461Z,99.66
2017-10-19T06:18:01.395Z,99.47
2017-10-19T06:19:12.091Z,99.37
2017-10-19T06:20:23.759Z,99.66
2017-10-19T06:21:34.532Z,99.47
2017-10-19T06:22:43.547Z,99.57
2017-10-19T06:23:52.815Z,98.9
2017-10-19T06:25:01.715Z,98.9
2017-10-19T06:26:11.043Z,99.28
2017-10-19T06:27:21.279Z,99.08
2017-10-19T06:28:31.523Z,99.08
2017-10-19T06:29:42.288Z,99.08
2017-10-19T06:30:54.652Z,98.9
2017-10-19T06:32:05.363Z,98.99
2017-10-19T06:33:15.764Z,98.99
2017-10-19T06:34:24.708Z,99.28
2017-10-19T06:35:36.350Z,98.71
2017-10-19T06:36:45.765Z,98.9
2017-10-19T06:37:56.432Z,98.9
2017-10-19T06:39:05.427Z,98.9
2017-10-19T06:40:16.079Z,98.99
2017-10-19T06:41:25.092Z,98.99
2017-10-19T06:42:35.309Z,98.99
2017-10-19T06:43:45.654Z,98.71
2017-10-19T06:44:56.424Z,98.9
2017-10-19T06:46:08.065Z,98.61
2017-10-19T06:47:17.023Z,98.71
2017-10-19T06:48:27.380Z,98.9
2017-10-19T06:49:37.705Z,98.71
2017-10-19T06:50:48.236Z,98.71
2017-10-19T06:51:59.321Z,98.99
2017-10-19T06:53:08.279Z,98.61
2017-10-19T06:54:17.285Z,98.23
2017-10-19T06:55:26.208Z,98.42
2017-10-19T06:56:36.876Z,98.03
2017-10-19T06:57:46.247Z,98.32
2017-10-19T06:58:55.500Z,98.03
2017-10-19T07:00:04.484Z,98.23
2017-10-19T07:01:14.792Z,97.85
2017-10-19T07:02:23.762Z,97.85
2017-10-19T07:03:34.856Z,98.03
2017-10-19T07:04:44.495Z,97.85
2017-10-19T07:05:53.472Z,97.56
2017-10-19T07:07:03.841Z,97.37
2017-10-19T07:08:15.517Z,97.56
2017-10-19T07:09:24.542Z,97.47
2017-10-19T07:10:35.541Z,97.94
2017-10-19T07:11:45.903Z,97.66
2017-10-19T07:12:56.336Z,97.61
2017-10-19T07:14:05.794Z,97.51
2017-10-19T07:15:14.804Z,97.51
2017-10-19T07:16:23.791Z,97.42
2017-10-19T07:17:33.450Z,97.71
2017-10-19T07:18:42.724Z,97.47
2017-10-19T07:19:53.123Z,97.56
2017-10-19T07:21:04.054Z,97.61
2017-10-19T07:22:13.056Z,97.66
2017-10-19T07:23:23.308Z,97.94
2017-10-19T07:24:33.705Z,97.37
2017-10-19T07:25:42.729Z,97.18
2017-10-19T07:26:53.133Z,97.56
2017-10-19T07:28:02.437Z,97.47
2017-10-19T07:29:11.779Z,97.56
2017-10-19T07:30:22.090Z,97.37
2017-10-19T07:31:32.704Z,97.66
2017-10-19T07:32:44.526Z,96.8
2017-10-19T07:33:56.224Z,96.8
2017-10-19T07:35:06.520Z,97.56
2017-10-19T07:36:15.607Z,97.47
2017-10-19T07:37:26.027Z,97.56
2017-10-19T07:38:38.051Z,97.56
2017-10-19T07:39:47.287Z,96.8
2017-10-19T07:40:57.698Z,96.61
2017-10-19T07:42:08.015Z,96.89
2017-10-19T07:43:19.726Z,96.22
2017-10-19T07:44:31.448Z,96.22
2017-10-19T07:45:41.821Z,96.51
2017-10-19T07:46:53.543Z,96.61
2017-10-19T07:48:03.954Z,96.8
2017-10-19T07:49:13.035Z,96.7
2017-10-19T07:50:23.761Z,96.7
2017-10-19T07:51:34.186Z,96.7
2017-10-19T07:52:45.891Z,96.7
2017-10-19T07:53:54.959Z,96.8
2017-10-19T07:55:05.346Z,96.7
2017-10-19T07:56:17.050Z,96.03
2017-10-19T07:57:26.067Z,96.42
2017-10-19T07:58:35.115Z,96.42
2017-10-19T07:59:45.587Z,96.51
2017-10-19T08:00:57.456Z,96.42
2017-10-19T08:02:07.073Z,96.03
2017-10-19T08:03:17.545Z,96.03
2017-10-19T08:04:28.494Z,96.7
2017-10-19T08:05:39.370Z,96.22
2017-10-19T08:06:49.950Z,96.22
2017-10-19T08:08:00.532Z,96.03
2017-10-19T08:09:11.094Z,96.22
2017-10-19T08:10:21.654Z,96.32
2017-10-19T08:11:32.218Z,95.75
2017-10-19T08:12:43.114Z,96.42
2017-10-19T08:13:54.995Z,95.75
2017-10-19T08:15:06.896Z,95.94
2017-10-19T08:16:17.458Z,96.03
2017-10-19T08:17:28.100Z,95.46
2017-10-19T08:18:38.980Z,95.75
2017-10-19T08:19:49.541Z,95.56
2017-10-19T08:21:00.635Z,95.65
2017-10-19T08:22:11.581Z,96.22
2017-10-19T08:23:22.179Z,96.42
2017-10-19T08:24:31.372Z,95.7
2017-10-19T08:25:41.932Z,95.65
2017-10-19T08:26:52.458Z,95.61
2017-10-19T08:28:04.338Z,96.03
2017-10-19T08:29:14.947Z,96.22
2017-10-19T08:30:27.167Z,95.7
2017-10-19T08:31:37.770Z,95.46
2017-10-19T08:32:48.383Z,95.65
2017-10-19T08:34:00.864Z,95.46
2017-10-19T08:35:12.101Z,95.65
2017-10-19T08:36:23.061Z,95.36
2017-10-19T08:37:33.675Z,95.65
2017-10-19T08:38:44.280Z,96.03
2017-10-19T08:39:56.546Z,96.03
2017-10-19T08:41:07.175Z,96.32
2017-10-19T08:42:17.798Z,96.03
2017-10-19T08:43:28.452Z,96.42
2017-10-19T08:44:39.411Z,95.65
2017-10-19T08:45:52.652Z,95.36
2017-10-19T08:47:03.255Z,95.51
2017-10-19T08:48:15.485Z,94.98
2017-10-19T08:49:26.104Z,95.75
2017-10-19T08:50:36.583Z,95.17
2017-10-19T08:52:19.532Z,96.03
2017-10-19T08:53:30.198Z,95.94
2017-10-19T08:54:39.606Z,95.75
2017-10-19T08:55:50.661Z,95.94
2017-10-19T08:57:01.280Z,95.94
2017-10-19T08:58:11.840Z,96.08
2017-10-19T08:59:22.839Z,95.89
2017-10-19T09:00:33.573Z,95.89
2017-10-19T09:01:45.800Z,95.98
2017-10-19T09:02:56.407Z,95.79
2017-10-19T09:04:08.443Z,95.89
2017-10-19T09:05:20.343Z,96.08
2017-10-19T09:06:30.946Z,95.98
2017-10-19T09:07:40.124Z,96.08
2017-10-19T09:08:50.749Z,95.89
2017-10-19T09:10:01.717Z,95.41
2017-10-19T09:11:13.931Z,95.61
2017-10-19T09:12:25.836Z,95.32
2017-10-19T09:13:36.428Z,95.41
2017-10-19T09:14:46.061Z,95.12
2017-10-19T09:15:56.884Z,95.22
2017-10-19T09:17:10.268Z,95.12
2017-10-19T09:18:21.306Z,95.03
2017-10-19T09:19:32.717Z,95.51
2017-10-19T09:20:43.721Z,95.22
2017-10-19T09:21:53.360Z,95.22
2017-10-19T09:23:03.957Z,95.22
2017-10-19T09:24:13.550Z,94.51
2017-10-19T09:25:24.263Z,94.79
2017-10-19T09:26:34.917Z,94.7
2017-10-19T09:27:44.787Z,94.51
2017-10-19T09:28:56.797Z,94.6
2017-10-19T09:30:10.041Z,94.51
2017-10-19T09:31:21.308Z,94.7
2017-10-19T09:32:31.979Z,94.51
2017-10-19T09:33:42.982Z,94.46
2017-10-19T09:34:53.644Z,94.51
2017-10-19T09:36:04.590Z,93.84
2017-10-19T09:37:14.233Z,93.65
2017-10-19T09:38:24.838Z,93.93
2017-10-19T09:39:35.407Z,93.74
2017-10-19T09:40:46.069Z,93.45
2017-10-19T09:41:56.891Z,93.74
2017-10-19T09:43:08.048Z,94.12
2017-10-19T09:44:17.661Z,94.02
2017-10-19T09:45:28.578Z,94.12
2017-10-19T09:46:39.271Z,93.55
2017-10-19T09:47:51.617Z,93.55
2017-10-19T09:49:02.179Z,93.45
2017-10-19T09:50:12.851Z,93.36
2017-10-19T09:51:24.352Z,93.45
2017-10-19T09:52:36.304Z,93.36
2017-10-19T09:53:46.918Z,93.65
2017-10-19T09:54:57.685Z,93.74
2017-10-19T09:56:08.641Z,93.26
2017-10-19T09:57:17.953Z,93.16
2017-10-19T09:58:28.166Z,92.93
2017-10-19T09:59:37.723Z,92.93
2017-10-19T10:00:48.734Z,92.54
2017-10-19T10:01:59.380Z,92.74
2017-10-19T10:03:10.007Z,92.59
2017-10-19T10:04:19.654Z,92.07
2017-10-19T10:05:30.282Z,92.45
2017-10-19T10:06:41.194Z,92.25
2017-10-19T10:07:52.109Z,91.88
2017-10-19T10:09:02.782Z,92.07
2017-10-19T10:10:13.777Z,92.25
2017-10-19T10:11:23.058Z,91.39
2017-10-19T10:12:32.682Z,91.49
2017-10-19T10:13:43.426Z,91.59
2017-10-19T10:14:54.011Z,91.49
2017-10-19T10:16:04.659Z,91.39
2017-10-19T10:17:16.685Z,90.92
2017-10-19T10:18:27.637Z,91.2
2017-10-19T10:19:37.589Z,90.82
2017-10-19T10:20:48.209Z,91.11
2017-10-19T10:21:58.765Z,90.82
2017-10-19T10:23:09.608Z,91.49
2017-10-19T10:24:18.829Z,91.49
2017-10-19T10:25:29.541Z,91.68
2017-10-19T10:26:40.858Z,91.59
2017-10-19T10:27:51.459Z,91.49
2017-10-19T10:29:00.670Z,91.49
2017-10-19T10:30:11.404Z,91.49
2017-10-19T10:31:22.028Z,91.59
2017-10-19T10:32:32.655Z,91.16
2017-10-19T10:33:44.699Z,90.2
2017-10-19T10:34:53.913Z,90.01
2017-10-19T10:36:03.111Z,90.58
2017-10-19T10:37:14.097Z,90.44
2017-10-19T10:38:23.332Z,89.67
2017-10-19T10:39:35.555Z,89.86
2017-10-19T10:40:44.739Z,89.29
2017-10-19T10:41:54.368Z,88.95
2017-10-19T10:43:04.996Z,88.28
2017-10-19T10:44:16.795Z,88.95
2017-10-19T10:45:28.771Z,88.56
2017-10-19T10:46:41.261Z,88.66
2017-10-19T10:47:51.869Z,88.47
2017-10-19T10:49:03.801Z,88.76
2017-10-19T10:50:15.740Z,87.8
2017-10-19T10:51:26.371Z,88.09
2017-10-19T10:52:38.894Z,87.8
2017-10-19T10:53:49.446Z,87.61
2017-10-19T10:55:00.061Z,87.99
2017-10-19T10:56:10.690Z,88.09
2017-10-19T10:57:21.306Z,87.51
2017-10-19T10:58:30.536Z,87.23
2017-10-19T10:59:39.811Z,87.66
2017-10-19T11:00:51.792Z,87.37
2017-10-19T11:02:02.692Z,87.56
2017-10-19T11:03:13.366Z,87.08
2017-10-19T11:04:23.999Z,87.76
2017-10-19T11:05:34.622Z,87.95
2017-10-19T11:06:44.569Z,87.66
2017-10-19T11:07:56.485Z,87.66
2017-10-19T11:09:07.049Z,88.23
2017-10-19T11:10:17.642Z,88.52
2017-10-19T11:11:28.569Z,88.52
2017-10-19T11:12:39.743Z,88.23
2017-10-19T11:13:50.227Z,88.29
2017-10-19T11:15:00.746Z,88.67
2017-10-19T11:16:10.290Z,88.76
2017-10-19T11:17:19.531Z,88.48
2017-10-19T11:18:30.141Z,88.86
2017-10-19T11:19:43.713Z,88.67
2017-10-19T11:20:54.335Z,88.67
2017-10-19T11:22:04.961Z,88.48
2017-10-19T11:23:15.575Z,88.95
2017-10-19T11:24:27.549Z,88.86
2017-10-19T11:25:37.007Z,88.86
2017-10-19T11:26:46.707Z,88.76
2017-10-19T11:27:57.706Z,88.86
2017-10-19T11:29:08.297Z,88.81
2017-10-19T11:30:18.964Z,88.71
2017-10-19T11:31:29.904Z,88.71
2017-10-19T11:32:40.534Z,88.9
2017-10-19T11:33:52.431Z,89.05
2017-10-19T11:35:01.645Z,88.95
2017-10-19T11:36:10.856Z,88.76
2017-10-19T11:37:22.760Z,88.71
2017-10-19T11:38:31.966Z,89.05
2017-10-19T11:39:41.242Z,88.62
2017-10-19T11:40:54.498Z,88.81
2017-10-19T11:42:04.170Z,88.71
2017-10-19T11:43:14.895Z,89.04
2017-10-19T11:44:27.334Z,88.66
2017-10-19T11:45:36.851Z,88.28
2017-10-19T11:46:47.432Z,88.37
2017-10-19T11:47:56.670Z,88.28
2017-10-19T11:49:07.639Z,88.37
2017-10-19T11:50:18.262Z,88.13
2017-10-19T11:51:27.462Z,87.46
2017-10-19T11:52:38.176Z,86.5
2017-10-19T11:53:48.792Z,86.93
2017-10-19T11:54:59.535Z,86.74
2017-10-19T11:56:10.151Z,86.45
2017-10-19T11:57:19.734Z,85.78
2017-10-19T11:58:33.135Z,85.05
2017-10-19T11:59:43.805Z,84.58
2017-10-19T12:00:54.927Z,84.04
2017-10-19T12:02:04.142Z,83.51
2017-10-19T12:03:13.656Z,82.93
2017-10-19T12:04:24.610Z,81.82
2017-10-19T12:05:35.300Z,81.19
2017-10-19T12:06:46.522Z,81.09
2017-10-19T12:07:57.161Z,80.13
2017-10-19T12:09:07.759Z,79.88
2017-10-19T12:10:19.782Z,79.21
2017-10-19T12:11:30.443Z,79.02
2017-10-19T12:12:40.987Z,78.92
2017-10-19T12:13:50.607Z,78.78
2017-10-19T12:14:59.916Z,78.88
2017-10-19T12:16:13.185Z,78.88
2017-10-19T12:17:26.463Z,79.13
2017-10-19T12:18:37.280Z,79.52
2017-10-19T12:19:47.918Z,79.09
2017-10-19T12:20:58.526Z,79.09
2017-10-19T12:22:09.493Z,79.28
2017-10-19T12:23:20.107Z,79.09
2017-10-19T12:24:31.154Z,79.09
2017-10-19T12:25:41.790Z,79.47
2017-10-19T12:26:52.847Z,78.99
2017-10-19T12:28:05.148Z,79.42
2017-10-19T12:29:16.430Z,78.75
2017-10-19T12:30:27.375Z,79.13
2017-10-19T12:31:39.327Z,79.03
2017-10-19T12:32:48.973Z,79.13
2017-10-19T12:33:59.562Z,78.94
2017-10-19T12:35:10.187Z,78.78
2017-10-19T12:36:19.866Z,78.59
2017-10-19T12:37:29.445Z,78.21
2017-10-19T12:38:40.408Z,78.4
2017-10-19T12:39:51.071Z,77.73
2017-10-19T12:41:00.768Z,77.83
2017-10-19T12:42:10.331Z,77.73
2017-10-19T12:43:20.975Z,77.58
2017-10-19T12:44:32.960Z,77.29
2017-10-19T12:45:43.930Z,77
2017-10-19T12:46:53.186Z,77
2017-10-19T12:48:03.831Z,77.19
2017-10-19T12:49:14.495Z,76.71
2017-10-19T12:50:25.390Z,76.04
2017-10-19T12:51:36.013Z,76.42
2017-10-19T12:52:46.642Z,76.61
2017-10-19T12:53:58.540Z,76.04
2017-10-19T12:55:08.256Z,76.04
2017-10-19T12:56:18.895Z,76.04
2017-10-19T12:57:30.379Z,76.04
2017-10-19T12:58:41.342Z,76.14
2017-10-19T12:59:53.387Z,76.32
2017-10-19T13:01:04.044Z,76.42
2017-10-19T13:02:16.200Z,76.04
2017-10-19T13:03:26.836Z,76.04
2017-10-19T13:04:37.413Z,76.32
2017-10-19T13:05:47.087Z,76.52
2017-10-19T13:06:56.654Z,76.04
2017-10-19T13:08:07.294Z,76.52
2017-10-19T13:09:16.516Z,76.61
2017-10-19T13:10:27.144Z,76.32
2017-10-19T13:11:38.171Z,76.52
2017-10-19T13:12:47.860Z,76.96
2017-10-19T13:13:59.865Z,77.44
2017-10-19T13:15:10.444Z,77.53
2017-10-19T13:16:21.088Z,77.63
2017-10-19T13:17:32.052Z,77.73
2017-10-19T13:18:43.059Z,77.92
2017-10-19T13:19:55.259Z,78.4
2017-10-19T13:21:05.815Z,78.5
2017-10-19T13:22:16.795Z,78.5
2017-10-19T13:23:27.390Z,78.21
2017-10-19T13:24:38.327Z,78.4
2017-10-19T13:25:50.247Z,78.69
2017-10-19T13:27:00.897Z,78.5
2017-10-19T13:28:10.159Z,78.69
2017-10-19T13:29:21.194Z,78.88
2017-10-19T13:30:32.502Z,78.78
2017-10-19T13:31:43.264Z,79.07
2017-10-19T13:32:53.945Z,79.07
2017-10-19T13:34:05.253Z,79.07
2017-10-19T13:35:17.276Z,79.46
2017-10-19T13:36:27.938Z,79.27
2017-10-19T13:37:37.573Z,79.65
2017-10-19T13:38:48.578Z,79.52
2017-10-19T13:39:59.522Z,79.8
2017-10-19T13:41:10.175Z,79.61
2017-10-19T13:42:20.750Z,79.99
2017-10-19T13:43:31.846Z,80.76
2017-10-19T13:44:45.091Z,80.28
2017-10-19T13:45:57.064Z,80.57
2017-10-19T13:47:06.779Z,80.57
2017-10-19T13:48:17.465Z,80.76
2017-10-19T13:49:28.429Z,80.47
2017-10-19T13:50:39.112Z,81.05
2017-10-19T13:51:50.335Z,80.86
2017-10-19T13:53:00.902Z,80.86
2017-10-19T13:54:11.905Z,80.96
2017-10-19T13:55:21.988Z,80.76
2017-10-19T13:56:33.338Z,81.05
2017-10-19T13:57:44.527Z,81.34
2017-10-19T13:58:54.131Z,80.96
2017-10-19T14:00:04.714Z,81.15
2017-10-19T14:01:15.730Z,81.15
2017-10-19T14:02:26.420Z,81.15
2017-10-19T14:03:37.032Z,81.15
2017-10-19T14:04:48.976Z,81.34
2017-10-19T14:05:59.517Z,81.53
2017-10-19T14:07:10.468Z,81.72
2017-10-19T14:08:22.403Z,81.72
2017-10-19T14:09:33.052Z,81.92
2017-10-19T14:10:44.034Z,82.2
2017-10-19T14:11:54.643Z,82.59
2017-10-19T14:13:05.606Z,82.1
2017-10-19T14:14:17.632Z,82.93
2017-10-19T14:15:27.334Z,82.54
2017-10-19T14:16:39.294Z,83.03
2017-10-19T14:17:49.309Z,82.84
2017-10-19T14:19:01.240Z,82.93
2017-10-19T14:20:11.303Z,83.12
2017-10-19T14:21:23.261Z,83.8
2017-10-19T14:22:34.239Z,83.8
2017-10-19T14:23:46.494Z,83.6
2017-10-19T14:24:57.179Z,83.89
2017-10-19T14:26:08.172Z,83.98
2017-10-19T14:27:19.159Z,83.98
2017-10-19T14:28:29.921Z,83.6
2017-10-19T14:29:42.548Z,83.6
2017-10-19T14:30:52.138Z,84.47
2017-10-19T14:32:02.810Z,84.37
2017-10-19T14:33:14.785Z,84.18
2017-10-19T14:34:25.423Z,84.47
2017-10-19T14:35:34.705Z,83.98
2017-10-19T14:36:45.448Z,84.08
2017-10-19T14:37:56.642Z,84.47
2017-10-19T14:39:07.310Z,84.37
2017-10-19T14:40:18.335Z,84.56
2017-10-19T14:41:29.341Z,84.75
2017-10-19T14:42:40.023Z,84.85
2017-10-19T14:43:51.036Z,84.66
2017-10-19T14:45:02.018Z,85.14
2017-10-19T14:46:14.011Z,85.04
2017-10-19T14:47:24.722Z,85.04
2017-10-19T14:48:35.766Z,85.33
2017-10-19T14:49:46.452Z,85.04
2017-10-19T14:50:57.414Z,85.04
2017-10-19T14:52:08.103Z,85.14
2017-10-19T14:53:20.633Z,85.24
2017-10-19T14:54:31.277Z,85.52
2017-10-19T14:55:41.913Z,85.14
2017-10-19T14:56:52.588Z,85.81
2017-10-19T14:58:01.834Z,86
2017-10-19T14:59:13.161Z,85.91
2017-10-19T15:00:23.854Z,86
2017-10-19T15:01:37.133Z,85.91
2017-10-19T15:02:47.854Z,85.81
2017-10-19T15:03:57.122Z,86.1
2017-10-19T15:05:06.497Z,86.38
2017-10-19T15:06:17.210Z,86.34
2017-10-19T15:07:28.146Z,87.01
2017-10-19T15:08:41.797Z,86.82
2017-10-19T15:09:51.092Z,86.82
2017-10-19T15:11:01.799Z,86.72
2017-10-19T15:12:13.829Z,87.01